Aviation Digital Data Service (ADDS)

Output produced by TAFs form (0101 UTC 22 September 2017)
found at http://www.aviationweather.gov/adds/tafs/
 
METAR text: RJTU 212138Z 03004KT 9999 FEW030 BKN035 BKN050 19/12 Q1019 RMK 1SC030 5SC035 6SC050 A3011
Conditions at: RJTU (UTSUNOMIYA (JGSD, JP) observed 2138 UTC 21 September 2017
Temperature: 19.0°C (66°F)
Dewpoint: 12.0°C (54°F) [RH = 64%]
Pressure (altimeter): 30.09 inches Hg (1019.0 mb)
Winds: from the NNE (30 degrees) at 5 MPH (4 knots; 2.1 m/s)
Visibility: 6 or more miles (10+ km)
Ceiling: 3500 feet AGL
Clouds: few clouds at 3000 feet AGL
broken clouds at 3500 feet AGL
broken clouds at 5000 feet AGL
Weather: no significant weather observed at this time